createdAt,value
2024-02-18T00:00:20.481Z,100.00
2024-02-18T00:01:28.915Z,100.00
2024-02-18T00:02:41.032Z,100.00
2024-02-18T00:04:01.158Z,100.00
2024-02-18T00:05:11.094Z,100.00
2024-02-18T00:09:44.325Z,100.00
2024-02-18T00:10:55.801Z,100.00
2024-02-18T00:12:12.993Z,100.00
2024-02-18T00:13:27.660Z,100.00
2024-02-18T00:14:44.369Z,100.00
2024-02-18T00:15:51.533Z,100.00
2024-02-18T00:17:28.007Z,100.00
2024-02-18T00:18:42.004Z,100.00
2024-02-18T00:19:52.596Z,100.00
2024-02-18T00:21:25.314Z,100.00
2024-02-18T00:22:35.498Z,100.00
2024-02-18T00:25:09.318Z,100.00
2024-02-18T00:26:30.094Z,100.00
2024-02-18T00:28:09.077Z,100.00
2024-02-18T00:29:16.345Z,100.00
2024-02-18T00:30:22.062Z,100.00
2024-02-18T00:31:28.578Z,100.00
2024-02-18T00:32:39.611Z,100.00
2024-02-18T00:33:51.110Z,100.00
2024-02-18T00:35:02.122Z,100.00
2024-02-18T00:36:16.056Z,100.00
2024-02-18T00:37:49.476Z,100.00
2024-02-18T00:38:58.422Z,100.00
2024-02-18T00:40:10.881Z,100.00
2024-02-18T00:41:25.275Z,100.00
2024-02-18T00:42:31.315Z,100.00
2024-02-18T00:43:56.206Z,100.00
2024-02-18T00:45:10.748Z,100.00
2024-02-18T00:46:28.489Z,100.00
2024-02-18T00:48:10.295Z,100.00
2024-02-18T00:49:21.113Z,100.00
2024-02-18T00:50:27.760Z,100.00
2024-02-18T00:51:43.601Z,100.00
2024-02-18T02:46:27.172Z,100.00
2024-02-18T02:47:31.824Z,100.00
2024-02-18T02:48:39.772Z,100.00
2024-02-18T02:58:44.416Z,100.00
2024-02-18T02:59:50.946Z,100.00
2024-02-18T03:00:54.753Z,100.00
2024-02-18T03:02:03.452Z,100.00
2024-02-18T03:03:11.164Z,100.00
2024-02-18T03:04:18.298Z,100.00
2024-02-18T03:05:25.609Z,100.00
2024-02-18T03:06:31.902Z,100.00
2024-02-18T03:07:45.733Z,100.00
2024-02-18T03:16:18.065Z,100.00
2024-02-18T03:17:22.850Z,100.00
2024-02-18T03:18:27.735Z,100.00
2024-02-18T03:19:35.473Z,100.00
2024-02-18T03:20:43.374Z,100.00
2024-02-18T03:21:57.782Z,100.00
2024-02-18T03:23:13.447Z,100.00
2024-02-18T03:24:21.425Z,100.00
2024-02-18T03:25:29.352Z,100.00
2024-02-18T03:26:37.305Z,100.00
2024-02-18T03:27:44.312Z,100.00
2024-02-18T03:28:49.330Z,100.00
2024-02-18T03:30:00.051Z,100.00
2024-02-18T03:31:09.095Z,100.00
2024-02-18T03:32:27.880Z,100.00
2024-02-18T03:33:32.682Z,100.00
2024-02-18T03:38:06.043Z,100.00
2024-02-18T03:39:14.562Z,100.00
2024-02-18T03:40:18.671Z,100.00
2024-02-18T03:41:29.549Z,100.00
2024-02-18T03:42:48.205Z,100.00
2024-02-18T03:43:54.306Z,100.00
2024-02-18T03:45:04.308Z,100.00
2024-02-18T03:46:14.141Z,100.00
2024-02-18T03:47:24.889Z,100.00
2024-02-18T03:48:31.879Z,100.00
2024-02-18T03:49:38.353Z,100.00
2024-02-18T03:50:49.050Z,100.00
2024-02-18T03:51:57.580Z,100.00
2024-02-18T03:53:01.703Z,100.00
2024-02-18T03:54:10.692Z,100.00
2024-02-18T03:55:22.869Z,100.00
2024-02-18T03:56:28.744Z,100.00
2024-02-18T03:57:31.598Z,100.00
2024-02-18T03:58:35.804Z,100.00
2024-02-18T03:59:44.073Z,100.00
2024-02-18T04:00:52.674Z,100.00
2024-02-18T04:01:59.021Z,100.00
2024-02-18T04:03:06.132Z,100.00
2024-02-18T04:04:12.907Z,100.00
2024-02-18T04:05:23.624Z,100.00
2024-02-18T04:06:26.751Z,100.00
2024-02-18T04:07:34.518Z,100.00
2024-02-18T04:08:52.675Z,100.00
2024-02-18T04:10:02.281Z,100.00
2024-02-18T04:11:06.938Z,100.00
2024-02-18T04:12:10.013Z,100.00
2024-02-18T04:13:13.030Z,100.00
2024-02-18T04:14:16.562Z,100.00
2024-02-18T04:15:22.459Z,100.00
2024-02-18T04:16:31.197Z,100.00
2024-02-18T04:17:39.310Z,100.00
2024-02-18T04:18:44.217Z,100.00
2024-02-18T04:19:52.586Z,100.00
2024-02-18T04:20:58.967Z,100.00
2024-02-18T04:22:03.198Z,100.00
2024-02-18T04:23:12.019Z,100.00
2024-02-18T04:24:17.845Z,100.00
2024-02-18T04:25:24.796Z,100.00
2024-02-18T04:26:32.631Z,100.00
2024-02-18T04:27:40.643Z,100.00
2024-02-18T04:28:48.807Z,100.00
2024-02-18T04:29:55.234Z,100.00
2024-02-18T04:31:06.320Z,100.00
2024-02-18T04:32:13.427Z,100.00
2024-02-18T04:33:16.434Z,100.00
2024-02-18T04:34:30.251Z,100.00
2024-02-18T04:35:38.740Z,100.00
2024-02-18T04:36:43.521Z,100.00
2024-02-18T04:37:48.165Z,100.00
2024-02-18T04:39:11.296Z,100.00
2024-02-18T04:40:22.458Z,100.00
2024-02-18T04:41:28.706Z,100.00
2024-02-18T04:52:35.187Z,100.00
2024-02-18T04:53:39.749Z,100.00
2024-02-18T04:54:46.203Z,100.00
2024-02-18T04:55:50.219Z,100.00
2024-02-18T04:56:55.880Z,100.00
2024-02-18T04:58:01.154Z,100.00
2024-02-18T04:59:05.152Z,100.00
2024-02-18T05:00:13.127Z,100.00
2024-02-18T05:01:19.542Z,100.00
2024-02-18T05:02:26.137Z,100.00
2024-02-18T05:03:33.160Z,100.00
2024-02-18T05:04:45.071Z,100.00
2024-02-18T05:05:48.012Z,100.00
2024-02-18T05:06:52.987Z,100.00
2024-02-18T05:07:55.756Z,100.00
2024-02-18T05:09:00.930Z,100.00
2024-02-18T05:10:09.722Z,100.00
2024-02-18T05:11:15.149Z,100.00
2024-02-18T05:12:31.198Z,100.00
2024-02-18T05:13:39.933Z,100.00
2024-02-18T05:14:44.983Z,100.00
2024-02-18T05:15:54.163Z,100.00
2024-02-18T05:17:00.862Z,100.00
2024-02-18T05:18:08.477Z,100.00
2024-02-18T05:19:11.773Z,100.00
2024-02-18T05:20:17.386Z,100.00
2024-02-18T05:21:20.443Z,100.00
2024-02-18T05:22:33.720Z,100.00
2024-02-18T05:23:41.904Z,100.00
2024-02-18T05:25:16.961Z,100.00
2024-02-18T05:26:31.303Z,100.00
2024-02-18T05:27:46.990Z,100.00
2024-02-18T05:28:52.622Z,100.00
2024-02-18T05:30:05.468Z,100.00
2024-02-18T05:31:24.512Z,100.00
2024-02-18T05:34:01.197Z,100.00
2024-02-18T05:35:35.892Z,100.00
2024-02-18T05:36:45.464Z,100.00
2024-02-18T05:37:59.669Z,100.00
2024-02-18T05:43:14.977Z,100.00
2024-02-18T05:44:23.246Z,100.00
2024-02-18T05:45:38.727Z,100.00
2024-02-18T05:46:48.867Z,100.00
2024-02-18T05:47:53.104Z,100.00
2024-02-18T05:48:57.483Z,100.00
2024-02-18T05:50:03.980Z,100.00
2024-02-18T05:51:15.118Z,100.00
2024-02-18T05:54:24.036Z,100.00
2024-02-18T05:57:14.308Z,100.00
2024-02-18T05:58:21.109Z,100.00
2024-02-18T05:59:30.940Z,100.00
2024-02-18T06:00:33.804Z,100.00
2024-02-18T06:01:36.684Z,100.00
2024-02-18T06:02:41.546Z,100.00
2024-02-18T06:03:46.801Z,100.00
2024-02-18T06:04:55.384Z,100.00
2024-02-18T06:05:58.998Z,100.00
2024-02-18T06:07:02.667Z,100.00
2024-02-18T06:08:09.548Z,100.00
2024-02-18T06:09:16.655Z,100.00
2024-02-18T06:10:24.124Z,100.00
2024-02-18T06:11:31.559Z,100.00
2024-02-18T06:12:36.558Z,100.00
2024-02-18T06:13:43.403Z,100.00
2024-02-18T06:14:47.412Z,100.00
2024-02-18T06:16:00.227Z,100.00
2024-02-18T06:17:14.097Z,100.00
2024-02-18T06:18:21.133Z,100.00
2024-02-18T06:19:24.058Z,100.00
2024-02-18T06:20:29.221Z,100.00
2024-02-18T06:21:33.292Z,100.00
2024-02-18T06:22:45.743Z,100.00
2024-02-18T06:23:48.928Z,100.00
2024-02-18T06:25:18.452Z,100.00
2024-02-18T06:26:22.226Z,100.00
2024-02-18T06:27:31.321Z,100.00
2024-02-18T06:28:45.780Z,100.00
2024-02-18T06:29:52.050Z,100.00
2024-02-18T06:31:17.140Z,100.00
2024-02-18T06:32:44.710Z,100.00
2024-02-18T06:33:53.123Z,100.00
2024-02-18T06:34:55.627Z,100.00
2024-02-18T06:36:00.557Z,100.00
2024-02-18T06:37:21.209Z,100.00
2024-02-18T06:38:23.315Z,100.00
2024-02-18T06:39:25.649Z,100.00
2024-02-18T06:40:28.791Z,100.00
2024-02-18T06:41:31.448Z,100.00
2024-02-18T06:42:36.739Z,100.00
2024-02-18T06:43:41.999Z,100.00
2024-02-18T06:44:46.552Z,100.00
2024-02-18T06:45:48.709Z,100.00
2024-02-18T06:46:52.825Z,100.00
2024-02-18T06:47:55.100Z,100.00
2024-02-18T06:48:57.167Z,100.00
2024-02-18T06:50:07.442Z,100.00
2024-02-18T06:51:09.836Z,100.00
2024-02-18T06:52:23.609Z,100.00
2024-02-18T06:53:25.783Z,100.00
2024-02-18T06:54:27.879Z,100.00
2024-02-18T06:55:30.016Z,100.00
2024-02-18T06:56:32.025Z,100.00
2024-02-18T06:57:40.685Z,100.00
2024-02-18T06:59:00.283Z,100.00
2024-02-18T07:00:13.776Z,100.00
2024-02-18T07:01:20.392Z,100.00
2024-02-18T07:02:22.624Z,100.00
2024-02-18T07:03:24.604Z,100.00
2024-02-18T07:04:27.520Z,100.00
2024-02-18T07:05:32.375Z,100.00
2024-02-18T07:06:34.378Z,100.00
2024-02-18T07:07:38.965Z,100.00
2024-02-18T07:08:41.182Z,100.00
2024-02-18T07:09:49.049Z,100.00
2024-02-18T07:10:52.987Z,100.00
2024-02-18T07:11:55.542Z,100.00
2024-02-18T07:13:00.651Z,100.00
2024-02-18T07:14:02.769Z,100.00
2024-02-18T07:15:07.907Z,100.00
2024-02-18T07:16:10.177Z,100.00
2024-02-18T07:17:13.989Z,100.00
2024-02-18T07:18:17.761Z,100.00
2024-02-18T07:19:21.079Z,100.00
2024-02-18T07:20:23.973Z,100.00
2024-02-18T07:21:25.978Z,100.00
2024-02-18T07:22:28.185Z,100.00
2024-02-18T07:23:30.079Z,100.00
2024-02-18T07:24:32.137Z,100.00
2024-02-18T07:25:35.044Z,100.00
2024-02-18T07:26:38.597Z,100.00
2024-02-18T07:27:40.587Z,100.00
2024-02-18T07:28:42.617Z,100.00
2024-02-18T07:29:44.534Z,100.00
2024-02-18T07:30:51.854Z,100.00
2024-02-18T07:31:55.516Z,100.00
2024-02-18T07:32:57.874Z,100.00
2024-02-18T07:34:00.313Z,100.00
2024-02-18T07:35:02.540Z,100.00
2024-02-18T07:36:05.840Z,100.00
2024-02-18T07:37:07.836Z,100.00
2024-02-18T07:38:09.731Z,100.00
2024-02-18T07:39:12.644Z,100.00
2024-02-18T07:40:14.821Z,100.00
2024-02-18T07:41:16.856Z,100.00
2024-02-18T07:42:19.695Z,100.00
2024-02-18T07:43:21.619Z,100.00
2024-02-18T07:44:23.907Z,100.00
2024-02-18T07:45:26.492Z,100.00
2024-02-18T07:46:29.642Z,100.00
2024-02-18T07:47:33.107Z,100.00
2024-02-18T07:48:36.879Z,100.00
2024-02-18T07:49:39.302Z,100.00
2024-02-18T07:50:45.961Z,100.00
2024-02-18T07:51:48.034Z,100.00
2024-02-18T07:52:49.864Z,100.00
2024-02-18T07:53:55.015Z,100.00
2024-02-18T07:54:57.310Z,100.00
2024-02-18T07:55:59.543Z,100.00
2024-02-18T07:57:01.988Z,100.00
2024-02-18T07:58:04.059Z,100.00
2024-02-18T07:59:06.890Z,100.00
2024-02-18T08:00:09.066Z,100.00
2024-02-18T08:01:12.163Z,100.00
2024-02-18T08:02:14.501Z,100.00
2024-02-18T08:03:16.522Z,100.00
2024-02-18T08:04:21.110Z,100.00
2024-02-18T08:05:24.000Z,100.00
2024-02-18T08:06:30.743Z,100.00
2024-02-18T08:07:33.318Z,100.00
2024-02-18T08:08:36.569Z,100.00
2024-02-18T08:09:38.690Z,100.00
2024-02-18T08:10:40.757Z,100.00
2024-02-18T08:11:42.838Z,100.00
2024-02-18T08:12:44.962Z,100.00
2024-02-18T08:13:47.004Z,100.00
2024-02-18T08:14:49.371Z,100.00
2024-02-18T08:15:52.973Z,100.00
2024-02-18T08:16:57.626Z,100.00
2024-02-18T08:18:01.048Z,100.00
2024-02-18T08:19:03.415Z,100.00
2024-02-18T08:20:05.771Z,100.00
2024-02-18T08:21:10.951Z,100.00
2024-02-18T08:22:14.289Z,100.00
2024-02-18T08:23:16.477Z,100.00
2024-02-18T08:24:18.599Z,100.00
2024-02-18T08:25:21.690Z,100.00
2024-02-18T08:26:27.025Z,100.00
2024-02-18T08:27:29.443Z,100.00
2024-02-18T08:28:38.824Z,100.00
2024-02-18T08:29:44.312Z,100.00
2024-02-18T08:30:46.937Z,100.00
2024-02-18T08:31:48.866Z,100.00
2024-02-18T08:32:51.039Z,100.00
2024-02-18T08:35:28.545Z,100.00
2024-02-18T08:36:30.599Z,100.00
2024-02-18T08:37:33.501Z,100.00
2024-02-18T08:38:35.434Z,100.00
2024-02-18T08:39:40.526Z,100.00
2024-02-18T08:40:47.625Z,100.00
2024-02-18T08:41:52.426Z,100.00
2024-02-18T08:42:54.783Z,100.00
2024-02-18T08:43:56.980Z,100.00
2024-02-18T08:44:59.178Z,100.00
2024-02-18T08:46:03.858Z,100.00
2024-02-18T08:47:08.881Z,100.00
2024-02-18T08:48:14.752Z,100.00
2024-02-18T08:49:18.075Z,100.00
2024-02-18T08:50:20.650Z,100.00
2024-02-18T08:51:24.271Z,100.00
2024-02-18T08:52:37.067Z,100.00
2024-02-18T08:53:43.707Z,100.00
2024-02-18T08:54:58.636Z,100.00
2024-02-18T08:56:06.541Z,100.00
2024-02-18T08:57:25.940Z,100.00
2024-02-18T08:58:32.803Z,100.00
2024-02-18T08:59:34.941Z,100.00
2024-02-18T09:00:37.086Z,100.00
2024-02-18T09:01:40.507Z,100.00
2024-02-18T09:02:47.473Z,100.00
2024-02-18T09:03:53.474Z,100.00
2024-02-18T09:04:56.038Z,100.00
2024-02-18T09:06:06.571Z,100.00
2024-02-18T09:07:10.496Z,100.00
2024-02-18T09:08:28.326Z,100.00
2024-02-18T09:09:36.138Z,100.00
2024-02-18T09:10:43.841Z,100.00
2024-02-18T09:11:48.230Z,100.00
2024-02-18T09:12:51.204Z,100.00
2024-02-18T09:13:54.627Z,100.00
2024-02-18T09:15:02.971Z,100.00
2024-02-18T09:16:14.254Z,100.00
2024-02-18T09:17:25.262Z,100.00
2024-02-18T09:18:29.646Z,100.00
2024-02-18T09:19:36.664Z,100.00
2024-02-18T09:20:55.505Z,100.00
2024-02-18T09:22:09.011Z,100.00
2024-02-18T09:23:14.741Z,100.00
2024-02-18T09:24:22.545Z,100.00
2024-02-18T09:26:08.603Z,100.00
2024-02-18T09:27:21.206Z,100.00
2024-02-18T09:28:31.462Z,100.00
2024-02-18T09:29:44.500Z,100.00
2024-02-18T09:30:48.243Z,99.96
2024-02-18T09:31:53.018Z,100.00
2024-02-18T09:32:59.546Z,100.00
2024-02-18T09:34:12.200Z,99.54
2024-02-18T09:35:25.145Z,97.56
2024-02-18T09:36:32.508Z,97.47
2024-02-18T09:37:43.395Z,96.10
2024-02-18T09:38:53.622Z,94.88
2024-02-18T09:41:57.939Z,94.23
2024-02-18T09:43:38.106Z,94.42
2024-02-18T09:44:46.782Z,94.72
2024-02-18T09:45:52.149Z,94.37
2024-02-18T09:47:01.117Z,95.39
2024-02-18T09:48:28.257Z,97.08
2024-02-18T09:49:39.866Z,95.03
2024-02-18T09:50:53.536Z,98.52
2024-02-18T09:52:04.125Z,94.59
2024-02-18T09:53:13.221Z,95.90
2024-02-18T09:54:26.408Z,96.75
2024-02-18T09:55:30.475Z,95.75
2024-02-18T09:56:58.313Z,99.02
2024-02-18T09:58:11.320Z,95.80
2024-02-18T09:59:42.257Z,96.28
2024-02-18T10:02:14.213Z,93.13
2024-02-18T10:03:24.386Z,95.56
2024-02-18T10:04:30.961Z,96.80
2024-02-18T10:05:42.994Z,98.46
2024-02-18T10:06:48.073Z,100.00
2024-02-18T10:08:06.398Z,100.00
2024-02-18T10:09:13.500Z,100.00
2024-02-18T10:10:49.718Z,100.00
2024-02-18T10:11:59.289Z,100.00
2024-02-18T10:13:14.041Z,98.29
2024-02-18T10:14:23.694Z,100.00
2024-02-18T10:15:26.955Z,100.00
2024-02-18T10:17:20.156Z,100.00
2024-02-18T10:18:57.614Z,100.00
2024-02-18T10:20:25.978Z,100.00
2024-02-18T10:21:45.439Z,100.00
2024-02-18T10:22:55.895Z,100.00
2024-02-18T10:24:06.409Z,100.00
2024-02-18T10:26:35.349Z,100.00
2024-02-18T10:29:16.939Z,100.00
2024-02-18T10:30:22.178Z,100.00
2024-02-18T10:31:57.080Z,100.00
2024-02-18T10:34:23.834Z,100.00
2024-02-18T10:35:46.894Z,100.00
2024-02-18T10:37:38.428Z,100.00
2024-02-18T10:40:49.164Z,100.00
2024-02-18T10:46:59.723Z,100.00
2024-02-18T10:56:23.664Z,100.00
2024-02-18T10:59:05.439Z,100.00
2024-02-18T11:00:12.095Z,100.00
2024-02-18T11:01:17.276Z,100.00
2024-02-18T11:02:27.283Z,100.00
2024-02-18T11:04:55.579Z,100.00
2024-02-18T11:06:09.317Z,100.00
2024-02-18T11:08:41.880Z,100.00
2024-02-18T11:09:48.233Z,100.00
2024-02-18T11:10:54.799Z,100.00
2024-02-18T11:11:58.201Z,100.00
2024-02-18T11:13:12.421Z,100.00
2024-02-18T11:14:15.993Z,100.00
2024-02-18T11:15:19.834Z,100.00
2024-02-18T11:16:23.409Z,100.00
2024-02-18T11:17:37.197Z,100.00
2024-02-18T11:18:48.356Z,100.00
2024-02-18T11:19:52.751Z,100.00
2024-02-18T11:20:57.515Z,100.00
2024-02-18T11:22:02.120Z,100.00
2024-02-18T11:24:24.869Z,100.00
2024-02-18T11:25:29.993Z,100.00
2024-02-18T11:29:17.437Z,100.00
2024-02-18T11:30:48.203Z,100.00
2024-02-18T11:32:17.436Z,100.00
2024-02-18T11:33:37.947Z,100.00
2024-02-18T11:34:56.248Z,100.00
2024-02-18T11:37:23.040Z,100.00
2024-02-18T11:38:51.067Z,100.00
2024-02-18T11:40:32.277Z,100.00
2024-02-18T11:41:53.899Z,100.00
2024-02-18T11:43:13.543Z,100.00
2024-02-18T11:44:25.047Z,100.00
2024-02-18T11:47:21.663Z,100.00
2024-02-18T11:51:39.280Z,100.00
2024-02-18T11:56:49.963Z,100.00
2024-02-18T11:57:57.574Z,100.00
2024-02-18T11:59:00.437Z,100.00
2024-02-18T12:00:05.189Z,100.00
2024-02-18T12:01:18.188Z,100.00
2024-02-18T12:02:21.916Z,100.00
2024-02-18T12:03:25.740Z,100.00
2024-02-18T12:04:27.961Z,100.00
2024-02-18T12:05:31.334Z,100.00
2024-02-18T12:06:33.640Z,100.00
2024-02-18T12:07:37.753Z,100.00
2024-02-18T12:08:40.162Z,100.00
2024-02-18T12:09:42.548Z,100.00
2024-02-18T12:10:46.705Z,100.00
2024-02-18T12:11:50.303Z,100.00
2024-02-18T12:12:54.915Z,100.00
2024-02-18T12:13:57.005Z,100.00
2024-02-18T12:14:59.314Z,100.00
2024-02-18T12:16:04.723Z,100.00
2024-02-18T12:17:08.262Z,100.00
2024-02-18T12:18:12.144Z,100.00
2024-02-18T12:19:20.273Z,100.00
2024-02-18T12:20:39.969Z,100.00
2024-02-18T12:21:44.381Z,100.00
2024-02-18T12:22:49.871Z,100.00
2024-02-18T12:23:58.195Z,100.00
2024-02-18T12:25:04.590Z,100.00
2024-02-18T12:26:09.739Z,100.00
2024-02-18T12:27:13.226Z,100.00
2024-02-18T12:28:18.506Z,100.00
2024-02-18T12:29:22.664Z,100.00
2024-02-18T12:30:31.084Z,100.00
2024-02-18T12:31:40.159Z,100.00
2024-02-18T12:32:43.956Z,100.00
2024-02-18T12:33:47.319Z,100.00
2024-02-18T12:34:50.356Z,100.00
2024-02-18T12:35:55.063Z,100.00
2024-02-18T12:37:04.136Z,100.00
2024-02-18T12:38:09.386Z,100.00
2024-02-18T12:39:23.137Z,100.00
2024-02-18T12:40:30.586Z,100.00
2024-02-18T12:41:33.209Z,100.00
2024-02-18T12:43:04.556Z,100.00
2024-02-18T12:44:44.673Z,100.00
2024-02-18T12:45:44.210Z,100.00
2024-02-18T12:46:58.441Z,100.00
2024-02-18T12:48:12.361Z,100.00
2024-02-18T12:49:14.833Z,100.00
2024-02-18T12:50:17.606Z,100.00
2024-02-18T12:51:27.156Z,100.00
2024-02-18T12:52:29.764Z,100.00
2024-02-18T12:53:37.211Z,100.00
2024-02-18T12:56:32.593Z,100.00
2024-02-18T12:57:40.733Z,100.00
2024-02-18T13:02:00.226Z,100.00
2024-02-18T13:05:00.145Z,100.00
2024-02-18T13:06:19.469Z,100.00
2024-02-18T13:07:35.430Z,100.00
2024-02-18T13:08:45.658Z,100.00
2024-02-18T13:09:55.151Z,100.00
2024-02-18T13:10:59.381Z,100.00
2024-02-18T13:12:05.451Z,100.00
2024-02-18T13:13:34.533Z,100.00
2024-02-18T13:14:44.003Z,100.00
2024-02-18T13:15:54.595Z,100.00
2024-02-18T13:16:58.772Z,100.00
2024-02-18T13:18:12.532Z,100.00
2024-02-18T13:19:15.464Z,100.00
2024-02-18T13:20:24.507Z,100.00
2024-02-18T13:21:28.112Z,100.00
2024-02-18T13:22:33.157Z,100.00
2024-02-18T13:23:39.198Z,100.00
2024-02-18T13:24:44.668Z,100.00
2024-02-18T13:26:15.202Z,100.00
2024-02-18T13:27:18.291Z,100.00
2024-02-18T13:28:24.406Z,100.00
2024-02-18T13:29:30.224Z,100.00
2024-02-18T13:30:39.507Z,100.00
2024-02-18T13:31:44.392Z,100.00
2024-02-18T13:32:50.569Z,100.00
2024-02-18T13:34:03.676Z,100.00
2024-02-18T13:35:18.810Z,100.00
2024-02-18T13:36:30.419Z,100.00
2024-02-18T13:37:44.058Z,100.00
2024-02-18T13:38:46.680Z,100.00
2024-02-18T13:39:49.094Z,100.00
2024-02-18T13:40:57.679Z,100.00
2024-02-18T13:42:04.006Z,100.00
2024-02-18T13:43:07.736Z,100.00
2024-02-18T13:44:10.944Z,100.00
2024-02-18T13:45:13.986Z,100.00
2024-02-18T13:46:42.284Z,100.00
2024-02-18T13:49:38.252Z,100.00
2024-02-18T13:50:55.375Z,100.00
2024-02-18T13:52:09.220Z,100.00
2024-02-18T13:53:16.125Z,100.00
2024-02-18T13:54:26.005Z,100.00
2024-02-18T13:55:29.690Z,100.00
2024-02-18T13:56:37.659Z,100.00
2024-02-18T13:57:44.497Z,100.00
2024-02-18T13:58:47.386Z,100.00
2024-02-18T13:59:58.166Z,100.00
2024-02-18T14:01:05.511Z,100.00
2024-02-18T14:02:10.107Z,100.00
2024-02-18T14:03:12.726Z,100.00
2024-02-18T14:04:18.305Z,100.00
2024-02-18T14:05:23.575Z,100.00
2024-02-18T14:06:32.939Z,100.00
2024-02-18T14:07:51.854Z,100.00
2024-02-18T14:09:07.707Z,100.00
2024-02-18T14:10:31.425Z,100.00
2024-02-18T14:11:41.953Z,100.00
2024-02-18T14:27:05.068Z,100.00
2024-02-18T14:28:15.223Z,100.00
2024-02-18T14:29:18.422Z,100.00
2024-02-18T14:30:26.691Z,100.00
2024-02-18T14:31:28.879Z,100.00
2024-02-18T14:32:31.647Z,100.00
2024-02-18T14:33:39.191Z,100.00
2024-02-18T14:34:53.038Z,100.00
2024-02-18T14:36:08.209Z,100.00
2024-02-18T14:37:30.580Z,100.00
2024-02-18T14:38:39.439Z,100.00
2024-02-18T14:39:48.237Z,100.00
2024-02-18T14:41:03.274Z,100.00
2024-02-18T14:42:18.321Z,100.00
2024-02-18T14:43:31.608Z,100.00
2024-02-18T14:44:43.692Z,100.00
2024-02-18T14:46:01.135Z,100.00
2024-02-18T14:47:03.565Z,100.00
2024-02-18T14:48:07.863Z,100.00
2024-02-18T14:49:17.366Z,100.00
2024-02-18T14:50:20.977Z,100.00
2024-02-18T14:51:40.575Z,100.00
2024-02-18T14:52:46.924Z,100.00
2024-02-18T14:53:56.041Z,100.00
2024-02-18T14:54:58.641Z,100.00
2024-02-18T14:56:12.382Z,100.00
2024-02-18T14:57:27.159Z,100.00
2024-02-18T14:58:34.658Z,100.00
2024-02-18T14:59:48.507Z,100.00
2024-02-18T15:00:53.050Z,100.00
2024-02-18T15:01:56.520Z,100.00
2024-02-18T15:03:11.954Z,100.00
2024-02-18T15:04:18.440Z,100.00
2024-02-18T15:05:26.793Z,100.00
2024-02-18T15:06:33.834Z,100.00
2024-02-18T15:08:05.369Z,100.00
2024-02-18T15:09:22.973Z,100.00
2024-02-18T15:10:36.666Z,100.00
2024-02-18T15:11:42.261Z,100.00
2024-02-18T15:12:51.552Z,100.00
2024-02-18T15:14:19.628Z,100.00
2024-02-18T15:15:30.526Z,100.00
2024-02-18T15:16:36.789Z,100.00
2024-02-18T15:17:51.640Z,100.00
2024-02-18T15:19:02.066Z,100.00
2024-02-18T15:20:15.948Z,100.00
2024-02-18T15:22:55.204Z,100.00
2024-02-18T15:24:09.151Z,100.00
2024-02-18T15:25:20.464Z,100.00
2024-02-18T15:26:23.870Z,100.00
2024-02-18T15:27:30.218Z,100.00
2024-02-18T15:28:45.922Z,100.00
2024-02-18T15:29:54.443Z,100.00
2024-02-18T15:36:27.631Z,100.00
2024-02-18T15:41:04.944Z,100.00
2024-02-18T15:42:20.791Z,100.00
2024-02-18T15:43:33.322Z,100.00
2024-02-18T15:44:58.574Z,100.00
2024-02-18T15:46:12.449Z,100.00
2024-02-18T15:47:22.409Z,100.00
2024-02-18T15:48:28.820Z,100.00
2024-02-18T15:49:34.720Z,100.00
2024-02-18T15:50:37.567Z,100.00
2024-02-18T15:52:04.972Z,100.00
2024-02-18T15:53:11.553Z,100.00
2024-02-18T15:54:37.963Z,100.00
2024-02-18T16:03:17.699Z,100.00
2024-02-18T16:04:33.674Z,100.00
2024-02-18T16:05:40.491Z,100.00
2024-02-18T16:06:50.060Z,100.00
2024-02-18T16:08:25.836Z,100.00
2024-02-18T16:10:04.627Z,100.00
2024-02-18T16:11:20.826Z,100.00
2024-02-18T16:12:29.213Z,100.00
2024-02-18T16:13:50.692Z,100.00
2024-02-18T16:15:04.935Z,100.00
2024-02-18T16:16:28.584Z,100.00
2024-02-18T16:17:33.907Z,100.00
2024-02-18T16:18:41.012Z,100.00
2024-02-18T16:24:01.612Z,100.00
2024-02-18T16:25:14.177Z,100.00
2024-02-18T16:26:27.607Z,100.00
2024-02-18T16:29:31.085Z,100.00
2024-02-18T16:30:46.132Z,100.00
2024-02-18T16:31:56.395Z,100.00
2024-02-18T16:35:50.514Z,100.00
2024-02-18T16:37:43.739Z,100.00
2024-02-18T16:39:21.496Z,100.00
2024-02-18T16:42:19.536Z,100.00
2024-02-18T16:43:50.707Z,100.00
2024-02-18T16:45:14.182Z,100.00
2024-02-18T16:47:45.401Z,100.00
2024-02-18T16:49:41.015Z,100.00
2024-02-18T16:51:03.915Z,100.00
2024-02-18T16:52:20.440Z,100.00
2024-02-18T16:53:43.961Z,100.00
2024-02-18T16:55:10.296Z,100.00
2024-02-18T16:56:37.533Z,100.00
2024-02-18T16:57:42.804Z,100.00
2024-02-18T16:59:02.309Z,100.00
2024-02-18T17:02:37.777Z,100.00
2024-02-18T17:03:48.367Z,100.00
2024-02-18T17:05:02.275Z,100.00
2024-02-18T17:07:08.041Z,100.00
2024-02-18T17:11:14.377Z,100.00
2024-02-18T17:12:28.424Z,100.00
2024-02-18T17:13:31.427Z,100.00
2024-02-18T17:16:38.177Z,100.00
2024-02-18T17:19:57.573Z,100.00
2024-02-18T17:21:02.518Z,100.00
2024-02-18T17:22:13.932Z,100.00
2024-02-18T17:29:22.307Z,100.00
2024-02-18T17:32:52.133Z,100.00
2024-02-18T17:34:08.883Z,100.00
2024-02-18T17:35:40.444Z,100.00
2024-02-18T17:37:18.436Z,100.00
2024-02-18T17:38:53.978Z,100.00
2024-02-18T17:40:22.000Z,100.00
2024-02-18T17:42:00.240Z,100.00
2024-02-18T17:43:15.814Z,100.00
2024-02-18T17:45:13.695Z,100.00
2024-02-18T17:46:38.419Z,100.00
2024-02-18T17:47:58.164Z,100.00
2024-02-18T17:49:15.911Z,100.00
2024-02-18T17:50:41.449Z,100.00
2024-02-18T17:52:36.811Z,100.00
2024-02-18T17:54:09.040Z,100.00
2024-02-18T17:55:21.478Z,100.00
2024-02-18T17:56:33.566Z,100.00
2024-02-18T17:58:31.302Z,100.00
2024-02-18T18:00:13.776Z,100.00
2024-02-18T18:02:48.523Z,100.00
2024-02-18T18:05:22.556Z,100.00
2024-02-18T18:06:46.195Z,100.00
2024-02-18T18:07:54.025Z,100.00
2024-02-18T18:09:30.311Z,100.00
2024-02-18T18:10:51.234Z,100.00
2024-02-18T18:12:11.845Z,100.00
2024-02-18T18:13:22.858Z,100.00
2024-02-18T18:14:32.366Z,100.00
2024-02-18T18:15:37.212Z,100.00
2024-02-18T18:16:45.688Z,100.00
2024-02-18T18:17:59.862Z,100.00
2024-02-18T18:19:10.438Z,100.00
2024-02-18T18:20:47.795Z,100.00
2024-02-18T18:22:02.211Z,100.00
2024-02-18T18:23:04.999Z,100.00
2024-02-18T18:24:09.800Z,100.00
2024-02-18T18:25:14.700Z,100.00
2024-02-18T18:27:22.912Z,100.00
2024-02-18T18:31:09.267Z,100.00
2024-02-18T18:35:47.109Z,100.00
2024-02-18T20:17:34.389Z,100.00
2024-02-18T20:18:44.141Z,100.00
2024-02-18T20:19:51.449Z,100.00
2024-02-18T20:20:56.076Z,100.00
2024-02-18T20:22:01.443Z,100.00
2024-02-18T20:23:18.330Z,100.00
2024-02-18T20:24:46.792Z,100.00
2024-02-18T23:04:03.746Z,100.00
2024-02-18T23:05:19.929Z,100.00
2024-02-18T23:06:41.507Z,100.00
2024-02-18T23:08:10.828Z,100.00
2024-02-18T23:09:41.122Z,100.00
2024-02-18T23:11:12.009Z,100.00
2024-02-18T23:12:25.351Z,100.00
2024-02-18T23:13:34.453Z,100.00
2024-02-18T23:14:48.185Z,100.00
2024-02-18T23:15:56.036Z,100.00
2024-02-18T23:17:09.028Z,100.00
2024-02-18T23:18:23.969Z,100.00
2024-02-18T23:19:33.656Z,100.00
2024-02-18T23:20:48.409Z,100.00
2024-02-18T23:22:00.898Z,100.00
2024-02-18T23:23:24.293Z,100.00
2024-02-18T23:24:34.187Z,100.00
2024-02-18T23:25:45.357Z,100.00
2024-02-18T23:27:01.261Z,100.00
2024-02-18T23:28:12.342Z,100.00
2024-02-18T23:29:22.028Z,100.00
2024-02-18T23:30:26.498Z,100.00
2024-02-18T23:31:39.783Z,100.00
2024-02-18T23:32:49.198Z,100.00
2024-02-18T23:34:02.084Z,100.00
2024-02-18T23:35:17.895Z,100.00
2024-02-18T23:36:31.352Z,100.00
2024-02-18T23:37:52.014Z,100.00
2024-02-18T23:39:01.593Z,100.00